sensor_id;sensor_type;location;lat;lon;timestamp;temperature;humidity
59007;DHT22;44792;52.760;6.726;2023-04-03T00:06:31;3.80;99.90
59007;DHT22;44792;52.760;6.726;2023-04-03T00:08:57;3.90;99.90
59007;DHT22;44792;52.760;6.726;2023-04-03T00:11:23;3.90;99.90
59007;DHT22;44792;52.760;6.726;2023-04-03T00:13:49;3.80;99.90
59007;DHT22;44792;52.760;6.726;2023-04-03T00:16:15;3.80;99.90
59007;DHT22;44792;52.760;6.726;2023-04-03T00:18:41;3.70;99.90
59007;DHT22;44792;52.760;6.726;2023-04-03T00:21:08;3.80;99.90
59007;DHT22;44792;52.760;6.726;2023-04-03T00:23:34;3.80;99.90
59007;DHT22;44792;52.760;6.726;2023-04-03T00:26:00;3.80;99.90
59007;DHT22;44792;52.760;6.726;2023-04-03T00:28:25;3.80;99.90
59007;DHT22;44792;52.760;6.726;2023-04-03T00:30:52;3.80;99.90
59007;DHT22;44792;52.760;6.726;2023-04-03T00:33:18;3.70;99.90
59007;DHT22;44792;52.760;6.726;2023-04-03T00:35:47;3.70;99.90
59007;DHT22;44792;52.760;6.726;2023-04-03T00:38:14;3.70;99.90
59007;DHT22;44792;52.760;6.726;2023-04-03T00:40:44;3.70;99.90
59007;DHT22;44792;52.760;6.726;2023-04-03T00:43:18;3.60;99.90
59007;DHT22;44792;52.760;6.726;2023-04-03T00:45:46;3.60;99.90
59007;DHT22;44792;52.760;6.726;2023-04-03T00:48:16;3.60;99.90
59007;DHT22;44792;52.760;6.726;2023-04-03T00:50:43;3.60;99.90
59007;DHT22;44792;52.760;6.726;2023-04-03T00:53:13;3.50;99.90
59007;DHT22;44792;52.760;6.726;2023-04-03T00:55:40;3.50;99.90
59007;DHT22;44792;52.760;6.726;2023-04-03T00:58:07;3.60;99.90
59007;DHT22;44792;52.760;6.726;2023-04-03T01:00:34;3.50;99.90
59007;DHT22;44792;52.760;6.726;2023-04-03T01:03:01;3.40;99.90
59007;DHT22;44792;52.760;6.726;2023-04-03T01:05:27;3.50;99.90
59007;DHT22;44792;52.760;6.726;2023-04-03T01:07:53;3.50;99.90
59007;DHT22;44792;52.760;6.726;2023-04-03T01:10:19;3.50;99.90
59007;DHT22;44792;52.760;6.726;2023-04-03T01:12:48;3.50;99.90
59007;DHT22;44792;52.760;6.726;2023-04-03T01:15:25;3.50;99.90
59007;DHT22;44792;52.760;6.726;2023-04-03T01:17:56;3.40;99.90
59007;DHT22;44792;52.760;6.726;2023-04-03T01:25:49;3.40;99.90
59007;DHT22;44792;52.760;6.726;2023-04-03T01:28:27;3.40;99.90
59007;DHT22;44792;52.760;6.726;2023-04-03T01:31:28;3.30;99.90
59007;DHT22;44792;52.760;6.726;2023-04-03T01:33:56;3.40;99.90
59007;DHT22;44792;52.760;6.726;2023-04-03T01:36:24;3.30;99.90
59007;DHT22;44792;52.760;6.726;2023-04-03T01:38:51;3.30;99.90
59007;DHT22;44792;52.760;6.726;2023-04-03T01:41:17;3.30;99.90
59007;DHT22;44792;52.760;6.726;2023-04-03T01:43:43;3.30;99.90
59007;DHT22;44792;52.760;6.726;2023-04-03T01:46:09;3.30;99.90
59007;DHT22;44792;52.760;6.726;2023-04-03T01:48:34;3.30;99.90
59007;DHT22;44792;52.760;6.726;2023-04-03T01:51:00;3.30;99.90
59007;DHT22;44792;52.760;6.726;2023-04-03T01:53:26;3.20;99.90
59007;DHT22;44792;52.760;6.726;2023-04-03T01:55:52;3.20;99.90
59007;DHT22;44792;52.760;6.726;2023-04-03T01:58:17;3.20;99.90
59007;DHT22;44792;52.760;6.726;2023-04-03T02:00:43;3.20;99.90
59007;DHT22;44792;52.760;6.726;2023-04-03T02:03:09;3.20;99.90
59007;DHT22;44792;52.760;6.726;2023-04-03T02:05:35;3.20;99.90
59007;DHT22;44792;52.760;6.726;2023-04-03T02:08:00;3.30;99.90
59007;DHT22;44792;52.760;6.726;2023-04-03T02:10:26;3.10;99.90
59007;DHT22;44792;52.760;6.726;2023-04-03T02:12:52;3.10;99.90
59007;DHT22;44792;52.760;6.726;2023-04-03T02:15:18;3.10;99.90
59007;DHT22;44792;52.760;6.726;2023-04-03T02:17:44;3.10;99.90
59007;DHT22;44792;52.760;6.726;2023-04-03T02:20:10;3.10;99.90
59007;DHT22;44792;52.760;6.726;2023-04-03T02:22:36;3.10;99.90
59007;DHT22;44792;52.760;6.726;2023-04-03T02:25:02;3.10;99.90
59007;DHT22;44792;52.760;6.726;2023-04-03T02:27:28;3.10;99.90
59007;DHT22;44792;52.760;6.726;2023-04-03T02:29:53;3.00;99.90
59007;DHT22;44792;52.760;6.726;2023-04-03T02:32:19;3.00;99.90
59007;DHT22;44792;52.760;6.726;2023-04-03T02:34:45;3.00;99.90
59007;DHT22;44792;52.760;6.726;2023-04-03T02:37:11;3.10;99.90
59007;DHT22;44792;52.760;6.726;2023-04-03T02:39:37;2.90;99.90
59007;DHT22;44792;52.760;6.726;2023-04-03T02:42:03;2.90;99.90
59007;DHT22;44792;52.760;6.726;2023-04-03T02:44:29;2.90;99.90
59007;DHT22;44792;52.760;6.726;2023-04-03T02:46:55;2.90;99.90
59007;DHT22;44792;52.760;6.726;2023-04-03T02:49:20;3.00;99.90
59007;DHT22;44792;52.760;6.726;2023-04-03T02:51:46;3.00;99.90
59007;DHT22;44792;52.760;6.726;2023-04-03T02:54:13;2.90;99.90
59007;DHT22;44792;52.760;6.726;2023-04-03T02:56:39;2.90;99.90
59007;DHT22;44792;52.760;6.726;2023-04-03T02:59:04;2.90;99.90
59007;DHT22;44792;52.760;6.726;2023-04-03T03:01:30;2.80;99.90
59007;DHT22;44792;52.760;6.726;2023-04-03T03:03:58;2.70;99.90
59007;DHT22;44792;52.760;6.726;2023-04-03T03:06:24;2.70;99.90
59007;DHT22;44792;52.760;6.726;2023-04-03T03:08:50;2.70;99.90
59007;DHT22;44792;52.760;6.726;2023-04-03T03:11:16;2.70;99.90
59007;DHT22;44792;52.760;6.726;2023-04-03T03:13:42;2.70;99.90
59007;DHT22;44792;52.760;6.726;2023-04-03T03:16:08;2.70;99.90
59007;DHT22;44792;52.760;6.726;2023-04-03T03:18:34;2.60;99.90
59007;DHT22;44792;52.760;6.726;2023-04-03T03:21:02;2.60;99.90
59007;DHT22;44792;52.760;6.726;2023-04-03T03:23:29;2.60;99.90
59007;DHT22;44792;52.760;6.726;2023-04-03T03:25:57;2.50;99.90
59007;DHT22;44792;52.760;6.726;2023-04-03T03:28:23;2.50;99.90
59007;DHT22;44792;52.760;6.726;2023-04-03T03:30:49;2.50;99.90
59007;DHT22;44792;52.760;6.726;2023-04-03T03:33:15;2.40;99.90
59007;DHT22;44792;52.760;6.726;2023-04-03T03:35:41;2.40;99.90
59007;DHT22;44792;52.760;6.726;2023-04-03T03:38:07;2.40;99.90
59007;DHT22;44792;52.760;6.726;2023-04-03T03:40:32;2.50;99.90
59007;DHT22;44792;52.760;6.726;2023-04-03T03:42:58;2.40;99.90
59007;DHT22;44792;52.760;6.726;2023-04-03T03:45:24;2.40;99.90
59007;DHT22;44792;52.760;6.726;2023-04-03T03:47:50;2.40;99.90
59007;DHT22;44792;52.760;6.726;2023-04-03T03:50:16;2.40;99.90
59007;DHT22;44792;52.760;6.726;2023-04-03T03:52:41;2.40;99.90
59007;DHT22;44792;52.760;6.726;2023-04-03T03:55:07;2.50;99.90
59007;DHT22;44792;52.760;6.726;2023-04-03T03:57:33;2.40;99.90
59007;DHT22;44792;52.760;6.726;2023-04-03T03:59:59;2.40;99.90
59007;DHT22;44792;52.760;6.726;2023-04-03T04:02:25;2.40;99.90
59007;DHT22;44792;52.760;6.726;2023-04-03T04:04:50;2.30;99.90
59007;DHT22;44792;52.760;6.726;2023-04-03T04:07:16;2.40;99.90
59007;DHT22;44792;52.760;6.726;2023-04-03T04:09:42;2.30;99.90
59007;DHT22;44792;52.760;6.726;2023-04-03T04:12:07;2.30;99.90
59007;DHT22;44792;52.760;6.726;2023-04-03T04:14:33;2.30;99.90
59007;DHT22;44792;52.760;6.726;2023-04-03T04:16:59;2.30;99.90
59007;DHT22;44792;52.760;6.726;2023-04-03T04:19:24;2.30;99.90
59007;DHT22;44792;52.760;6.726;2023-04-03T04:21:50;2.30;99.90
59007;DHT22;44792;52.760;6.726;2023-04-03T04:24:16;2.30;99.90
59007;DHT22;44792;52.760;6.726;2023-04-03T04:26:41;2.20;99.90
59007;DHT22;44792;52.760;6.726;2023-04-03T04:29:09;2.20;99.90
59007;DHT22;44792;52.760;6.726;2023-04-03T04:31:35;2.20;99.90
59007;DHT22;44792;52.760;6.726;2023-04-03T04:34:01;2.20;99.90
59007;DHT22;44792;52.760;6.726;2023-04-03T04:36:27;2.20;99.90
59007;DHT22;44792;52.760;6.726;2023-04-03T04:38:52;2.10;99.90
59007;DHT22;44792;52.760;6.726;2023-04-03T04:41:21;2.10;99.90
59007;DHT22;44792;52.760;6.726;2023-04-03T04:43:51;2.10;99.90
59007;DHT22;44792;52.760;6.726;2023-04-03T04:46:17;2.00;99.90
59007;DHT22;44792;52.760;6.726;2023-04-03T04:48:44;2.00;99.90
59007;DHT22;44792;52.760;6.726;2023-04-03T04:51:10;2.00;99.90
59007;DHT22;44792;52.760;6.726;2023-04-03T04:53:36;1.90;99.90
59007;DHT22;44792;52.760;6.726;2023-04-03T04:56:02;2.00;99.90
59007;DHT22;44792;52.760;6.726;2023-04-03T04:58:27;1.90;99.90
59007;DHT22;44792;52.760;6.726;2023-04-03T05:01:03;1.90;99.90
59007;DHT22;44792;52.760;6.726;2023-04-03T05:03:29;1.90;99.90
59007;DHT22;44792;52.760;6.726;2023-04-03T05:05:55;1.90;99.90
59007;DHT22;44792;52.760;6.726;2023-04-03T05:08:21;1.90;99.90
59007;DHT22;44792;52.760;6.726;2023-04-03T05:10:47;1.90;99.90
59007;DHT22;44792;52.760;6.726;2023-04-03T05:13:13;1.90;99.90
59007;DHT22;44792;52.760;6.726;2023-04-03T05:15:38;1.90;99.90
59007;DHT22;44792;52.760;6.726;2023-04-03T05:18:04;1.80;99.90
59007;DHT22;44792;52.760;6.726;2023-04-03T05:20:31;1.80;99.90
59007;DHT22;44792;52.760;6.726;2023-04-03T05:22:57;1.80;99.90
59007;DHT22;44792;52.760;6.726;2023-04-03T05:25:23;1.70;99.90
59007;DHT22;44792;52.760;6.726;2023-04-03T05:27:49;1.90;99.90
59007;DHT22;44792;52.760;6.726;2023-04-03T05:30:15;1.80;99.90
59007;DHT22;44792;52.760;6.726;2023-04-03T05:32:41;1.80;99.90
59007;DHT22;44792;52.760;6.726;2023-04-03T05:35:08;1.80;99.90
59007;DHT22;44792;52.760;6.726;2023-04-03T05:37:34;1.90;99.90
59007;DHT22;44792;52.760;6.726;2023-04-03T05:40:00;2.00;99.90
59007;DHT22;44792;52.760;6.726;2023-04-03T05:42:25;2.00;99.90
59007;DHT22;44792;52.760;6.726;2023-04-03T05:44:51;2.10;99.90
59007;DHT22;44792;52.760;6.726;2023-04-03T05:47:18;2.20;99.90
59007;DHT22;44792;52.760;6.726;2023-04-03T05:49:44;2.30;99.90
59007;DHT22;44792;52.760;6.726;2023-04-03T05:54:46;2.40;99.90
59007;DHT22;44792;52.760;6.726;2023-04-03T05:57:14;2.50;99.90
59007;DHT22;44792;52.760;6.726;2023-04-03T05:59:42;2.50;99.90
59007;DHT22;44792;52.760;6.726;2023-04-03T06:02:14;2.60;99.90
59007;DHT22;44792;52.760;6.726;2023-04-03T06:04:40;2.60;99.90
59007;DHT22;44792;52.760;6.726;2023-04-03T06:07:06;2.50;99.90
59007;DHT22;44792;52.760;6.726;2023-04-03T06:09:33;2.60;99.90
59007;DHT22;44792;52.760;6.726;2023-04-03T06:11:59;2.70;99.90
59007;DHT22;44792;52.760;6.726;2023-04-03T06:14:25;2.80;99.90
59007;DHT22;44792;52.760;6.726;2023-04-03T06:16:52;2.80;99.90
59007;DHT22;44792;52.760;6.726;2023-04-03T06:19:20;2.90;99.90
59007;DHT22;44792;52.760;6.726;2023-04-03T06:21:46;3.00;99.90
59007;DHT22;44792;52.760;6.726;2023-04-03T06:24:15;3.00;99.90
59007;DHT22;44792;52.760;6.726;2023-04-03T06:26:41;3.10;99.90
59007;DHT22;44792;52.760;6.726;2023-04-03T06:29:07;3.10;99.90
59007;DHT22;44792;52.760;6.726;2023-04-03T06:31:34;3.20;99.90
59007;DHT22;44792;52.760;6.726;2023-04-03T06:34:00;3.10;99.90
59007;DHT22;44792;52.760;6.726;2023-04-03T06:36:25;3.20;99.90
59007;DHT22;44792;52.760;6.726;2023-04-03T06:38:51;3.30;99.90
59007;DHT22;44792;52.760;6.726;2023-04-03T06:41:17;3.30;99.90
59007;DHT22;44792;52.760;6.726;2023-04-03T06:43:46;3.40;99.90
59007;DHT22;44792;52.760;6.726;2023-04-03T06:46:17;3.40;99.90
59007;DHT22;44792;52.760;6.726;2023-04-03T06:48:44;3.40;99.90
59007;DHT22;44792;52.760;6.726;2023-04-03T06:51:27;3.40;99.90
59007;DHT22;44792;52.760;6.726;2023-04-03T06:53:54;3.50;99.90
59007;DHT22;44792;52.760;6.726;2023-04-03T06:56:21;3.60;99.90
59007;DHT22;44792;52.760;6.726;2023-04-03T06:58:47;3.50;99.90
59007;DHT22;44792;52.760;6.726;2023-04-03T07:01:16;3.60;99.90
59007;DHT22;44792;52.760;6.726;2023-04-03T07:03:43;3.50;99.90
59007;DHT22;44792;52.760;6.726;2023-04-03T07:06:12;3.60;99.90
59007;DHT22;44792;52.760;6.726;2023-04-03T07:08:38;3.60;99.90
59007;DHT22;44792;52.760;6.726;2023-04-03T07:11:05;3.90;99.90
59007;DHT22;44792;52.760;6.726;2023-04-03T07:13:31;3.80;99.90
59007;DHT22;44792;52.760;6.726;2023-04-03T07:15:56;3.80;99.90
59007;DHT22;44792;52.760;6.726;2023-04-03T07:18:22;4.10;99.90
59007;DHT22;44792;52.760;6.726;2023-04-03T07:20:48;3.90;99.90
59007;DHT22;44792;52.760;6.726;2023-04-03T07:23:14;3.90;99.90
59007;DHT22;44792;52.760;6.726;2023-04-03T07:25:47;4.00;99.90
59007;DHT22;44792;52.760;6.726;2023-04-03T07:28:14;4.00;99.90
59007;DHT22;44792;52.760;6.726;2023-04-03T07:30:45;3.90;99.90
59007;DHT22;44792;52.760;6.726;2023-04-03T07:33:12;3.90;99.90
59007;DHT22;44792;52.760;6.726;2023-04-03T07:35:39;3.90;99.90
59007;DHT22;44792;52.760;6.726;2023-04-03T07:38:05;4.00;99.90
59007;DHT22;44792;52.760;6.726;2023-04-03T07:40:32;4.10;99.90
59007;DHT22;44792;52.760;6.726;2023-04-03T07:42:57;4.10;99.90
59007;DHT22;44792;52.760;6.726;2023-04-03T07:45:24;4.20;99.90
59007;DHT22;44792;52.760;6.726;2023-04-03T07:47:50;4.30;99.90
59007;DHT22;44792;52.760;6.726;2023-04-03T07:50:16;4.20;99.90
59007;DHT22;44792;52.760;6.726;2023-04-03T07:52:42;4.30;99.90
59007;DHT22;44792;52.760;6.726;2023-04-03T07:55:08;4.40;99.90
59007;DHT22;44792;52.760;6.726;2023-04-03T07:57:34;4.30;99.90
59007;DHT22;44792;52.760;6.726;2023-04-03T08:00:00;4.50;99.90
59007;DHT22;44792;52.760;6.726;2023-04-03T08:02:26;4.60;99.90
59007;DHT22;44792;52.760;6.726;2023-04-03T08:04:52;4.60;99.90
59007;DHT22;44792;52.760;6.726;2023-04-03T08:07:18;4.70;99.90
59007;DHT22;44792;52.760;6.726;2023-04-03T08:09:44;4.70;99.90
59007;DHT22;44792;52.760;6.726;2023-04-03T08:12:10;4.70;99.90
59007;DHT22;44792;52.760;6.726;2023-04-03T08:14:37;4.80;99.90
59007;DHT22;44792;52.760;6.726;2023-04-03T08:17:03;5.00;99.90
59007;DHT22;44792;52.760;6.726;2023-04-03T08:19:30;5.10;99.90
59007;DHT22;44792;52.760;6.726;2023-04-03T08:21:56;5.10;99.90
59007;DHT22;44792;52.760;6.726;2023-04-03T08:24:24;5.00;99.90
59007;DHT22;44792;52.760;6.726;2023-04-03T08:26:50;5.10;99.90
59007;DHT22;44792;52.760;6.726;2023-04-03T08:29:16;5.20;99.90
59007;DHT22;44792;52.760;6.726;2023-04-03T08:31:42;5.20;99.90
59007;DHT22;44792;52.760;6.726;2023-04-03T08:34:08;5.20;99.90
59007;DHT22;44792;52.760;6.726;2023-04-03T08:36:34;5.20;99.90
59007;DHT22;44792;52.760;6.726;2023-04-03T08:39:00;5.40;99.90
59007;DHT22;44792;52.760;6.726;2023-04-03T08:41:34;5.30;99.90
59007;DHT22;44792;52.760;6.726;2023-04-03T08:44:24;5.30;99.90
59007;DHT22;44792;52.760;6.726;2023-04-03T08:49:30;5.40;99.90
59007;DHT22;44792;52.760;6.726;2023-04-03T08:51:59;5.50;99.90
59007;DHT22;44792;52.760;6.726;2023-04-03T08:54:40;5.60;99.90
59007;DHT22;44792;52.760;6.726;2023-04-03T08:57:06;5.70;99.90
59007;DHT22;44792;52.760;6.726;2023-04-03T08:59:37;5.70;99.90
59007;DHT22;44792;52.760;6.726;2023-04-03T09:02:35;5.70;99.90
59007;DHT22;44792;52.760;6.726;2023-04-03T09:04:59;5.70;99.90
59007;DHT22;44792;52.760;6.726;2023-04-03T09:07:38;5.80;99.90
59007;DHT22;44792;52.760;6.726;2023-04-03T09:10:05;5.90;99.90
59007;DHT22;44792;52.760;6.726;2023-04-03T09:12:38;5.90;99.90
59007;DHT22;44792;52.760;6.726;2023-04-03T09:15:14;6.10;99.90
59007;DHT22;44792;52.760;6.726;2023-04-03T09:17:58;6.30;99.90
59007;DHT22;44792;52.760;6.726;2023-04-03T09:22:54;6.40;99.90
59007;DHT22;44792;52.760;6.726;2023-04-03T09:25:27;6.40;99.90
59007;DHT22;44792;52.760;6.726;2023-04-03T09:27:54;6.50;99.90
59007;DHT22;44792;52.760;6.726;2023-04-03T09:30:24;6.60;99.90
59007;DHT22;44792;52.760;6.726;2023-04-03T09:32:52;6.50;99.90
59007;DHT22;44792;52.760;6.726;2023-04-03T09:35:29;6.60;99.90
59007;DHT22;44792;52.760;6.726;2023-04-03T09:38:02;6.60;99.90
59007;DHT22;44792;52.760;6.726;2023-04-03T09:40:40;6.80;99.90
59007;DHT22;44792;52.760;6.726;2023-04-03T09:43:28;6.70;99.50
59007;DHT22;44792;52.760;6.726;2023-04-03T09:45:55;6.70;99.90
59007;DHT22;44792;52.760;6.726;2023-04-03T09:48:23;6.80;99.90
59007;DHT22;44792;52.760;6.726;2023-04-03T09:50:58;7.00;99.90
59007;DHT22;44792;52.760;6.726;2023-04-03T09:56:03;6.90;99.90
59007;DHT22;44792;52.760;6.726;2023-04-03T09:58:33;6.90;99.90
59007;DHT22;44792;52.760;6.726;2023-04-03T10:01:02;7.00;99.90
59007;DHT22;44792;52.760;6.726;2023-04-03T10:03:33;6.90;99.00
59007;DHT22;44792;52.760;6.726;2023-04-03T10:06:02;6.90;98.30
59007;DHT22;44792;52.760;6.726;2023-04-03T10:08:31;7.00;98.70
59007;DHT22;44792;52.760;6.726;2023-04-03T10:11:13;7.10;99.90
59007;DHT22;44792;52.760;6.726;2023-04-03T10:14:03;7.00;97.80
59007;DHT22;44792;52.760;6.726;2023-04-03T10:16:41;7.00;96.30
59007;DHT22;44792;52.760;6.726;2023-04-03T10:19:53;7.30;99.40
59007;DHT22;44792;52.760;6.726;2023-04-03T10:22:02;7.30;97.30
59007;DHT22;44792;52.760;6.726;2023-04-03T10:38:33;7.90;99.40
59007;DHT22;44792;52.760;6.726;2023-04-03T10:43:44;7.90;98.20
59007;DHT22;44792;52.760;6.726;2023-04-03T10:46:27;8.00;99.10
59007;DHT22;44792;52.760;6.726;2023-04-03T10:54:24;7.90;99.80
59007;DHT22;44792;52.760;6.726;2023-04-03T10:56:57;7.90;93.40
59007;DHT22;44792;52.760;6.726;2023-04-03T11:02:30;7.80;96.00
59007;DHT22;44792;52.760;6.726;2023-04-03T11:05:07;7.80;99.90
59007;DHT22;44792;52.760;6.726;2023-04-03T11:07:45;8.00;99.90
59007;DHT22;44792;52.760;6.726;2023-04-03T11:10:26;8.00;97.80
59007;DHT22;44792;52.760;6.726;2023-04-03T11:13:06;8.10;97.90
59007;DHT22;44792;52.760;6.726;2023-04-03T11:15:36;8.00;97.90
59007;DHT22;44792;52.760;6.726;2023-04-03T11:18:09;8.00;98.80
59007;DHT22;44792;52.760;6.726;2023-04-03T11:20:37;7.80;95.90
59007;DHT22;44792;52.760;6.726;2023-04-03T11:23:31;7.70;97.20
59007;DHT22;44792;52.760;6.726;2023-04-03T11:28:33;8.00;98.10
59007;DHT22;44792;52.760;6.726;2023-04-03T11:31:38;7.90;95.70
59007;DHT22;44792;52.760;6.726;2023-04-03T11:34:24;8.00;97.60
59007;DHT22;44792;52.760;6.726;2023-04-03T11:36:58;8.10;97.90
59007;DHT22;44792;52.760;6.726;2023-04-03T11:39:31;8.10;99.50
59007;DHT22;44792;52.760;6.726;2023-04-03T11:44:44;8.10;95.90
59007;DHT22;44792;52.760;6.726;2023-04-03T11:47:11;8.10;98.00
59007;DHT22;44792;52.760;6.726;2023-04-03T11:49:57;8.10;99.00
59007;DHT22;44792;52.760;6.726;2023-04-03T12:08:51;8.10;95.30
59007;DHT22;44792;52.760;6.726;2023-04-03T12:11:25;8.20;97.10
59007;DHT22;44792;52.760;6.726;2023-04-03T12:27:34;8.50;93.80
59007;DHT22;44792;52.760;6.726;2023-04-03T12:51:21;8.70;97.00
59007;DHT22;44792;52.760;6.726;2023-04-03T12:53:49;8.60;96.70
59007;DHT22;44792;52.760;6.726;2023-04-03T12:58:46;8.60;96.50
59007;DHT22;44792;52.760;6.726;2023-04-03T13:01:16;8.60;99.20
59007;DHT22;44792;52.760;6.726;2023-04-03T13:03:49;8.60;96.30
59007;DHT22;44792;52.760;6.726;2023-04-03T13:07:00;8.70;96.40
59007;DHT22;44792;52.760;6.726;2023-04-03T13:12:15;8.60;95.50
59007;DHT22;44792;52.760;6.726;2023-04-03T13:14:39;8.70;95.90
59007;DHT22;44792;52.760;6.726;2023-04-03T13:17:16;8.70;96.10
59007;DHT22;44792;52.760;6.726;2023-04-03T13:19:43;8.80;95.30
59007;DHT22;44792;52.760;6.726;2023-04-03T13:22:39;8.80;96.00
59007;DHT22;44792;52.760;6.726;2023-04-03T13:25:11;8.80;94.20
59007;DHT22;44792;52.760;6.726;2023-04-03T13:27:39;8.70;95.50
59007;DHT22;44792;52.760;6.726;2023-04-03T13:30:25;8.70;97.30
59007;DHT22;44792;52.760;6.726;2023-04-03T13:32:52;8.70;96.20
59007;DHT22;44792;52.760;6.726;2023-04-03T13:35:44;8.80;95.40
59007;DHT22;44792;52.760;6.726;2023-04-03T13:40:54;8.80;95.50
59007;DHT22;44792;52.760;6.726;2023-04-03T13:43:29;8.80;95.80
59007;DHT22;44792;52.760;6.726;2023-04-03T13:46:03;8.70;97.70
59007;DHT22;44792;52.760;6.726;2023-04-03T13:48:45;8.80;96.80
59007;DHT22;44792;52.760;6.726;2023-04-03T13:53:57;8.90;98.00
59007;DHT22;44792;52.760;6.726;2023-04-03T13:56:42;8.80;94.70
59007;DHT22;44792;52.760;6.726;2023-04-03T14:01:54;8.90;96.70
59007;DHT22;44792;52.760;6.726;2023-04-03T14:04:32;9.00;98.20
59007;DHT22;44792;52.760;6.726;2023-04-03T14:06:58;9.00;96.20
59007;DHT22;44792;52.760;6.726;2023-04-03T14:09:27;9.00;97.10
59007;DHT22;44792;52.760;6.726;2023-04-03T14:12:00;9.00;96.50
59007;DHT22;44792;52.760;6.726;2023-04-03T14:14:32;9.00;95.40
59007;DHT22;44792;52.760;6.726;2023-04-03T14:17:01;9.00;96.30
59007;DHT22;44792;52.760;6.726;2023-04-03T14:19:35;9.00;96.20
59007;DHT22;44792;52.760;6.726;2023-04-03T14:22:28;8.90;95.00
59007;DHT22;44792;52.760;6.726;2023-04-03T14:24:53;8.90;96.10
59007;DHT22;44792;52.760;6.726;2023-04-03T14:29:48;9.10;96.40
59007;DHT22;44792;52.760;6.726;2023-04-03T14:32:16;9.10;95.90
59007;DHT22;44792;52.760;6.726;2023-04-03T14:34:42;9.10;95.30
59007;DHT22;44792;52.760;6.726;2023-04-03T14:37:14;9.10;96.90
59007;DHT22;44792;52.760;6.726;2023-04-03T14:39:40;9.00;95.50
59007;DHT22;44792;52.760;6.726;2023-04-03T14:42:12;9.10;97.20
59007;DHT22;44792;52.760;6.726;2023-04-03T14:44:38;9.00;96.40
59007;DHT22;44792;52.760;6.726;2023-04-03T14:47:04;9.10;96.90
59007;DHT22;44792;52.760;6.726;2023-04-03T14:49:30;9.10;98.30
59007;DHT22;44792;52.760;6.726;2023-04-03T14:51:58;9.10;96.00
59007;DHT22;44792;52.760;6.726;2023-04-03T14:54:24;9.00;95.10
59007;DHT22;44792;52.760;6.726;2023-04-03T14:56:57;9.00;96.30
59007;DHT22;44792;52.760;6.726;2023-04-03T14:59:23;9.10;95.80
59007;DHT22;44792;52.760;6.726;2023-04-03T15:01:49;9.10;94.00
59007;DHT22;44792;52.760;6.726;2023-04-03T15:04:17;9.10;94.40
59007;DHT22;44792;52.760;6.726;2023-04-03T15:06:43;9.10;95.90
59007;DHT22;44792;52.760;6.726;2023-04-03T15:11:40;9.10;95.80
59007;DHT22;44792;52.760;6.726;2023-04-03T15:14:08;9.10;97.20
59007;DHT22;44792;52.760;6.726;2023-04-03T15:16:34;9.10;95.10
59007;DHT22;44792;52.760;6.726;2023-04-03T15:19:00;9.10;96.70
59007;DHT22;44792;52.760;6.726;2023-04-03T15:21:26;9.10;95.20
59007;DHT22;44792;52.760;6.726;2023-04-03T15:23:52;9.10;95.30
59007;DHT22;44792;52.760;6.726;2023-04-03T15:26:17;9.10;94.60
59007;DHT22;44792;52.760;6.726;2023-04-03T15:28:43;9.10;95.30
59007;DHT22;44792;52.760;6.726;2023-04-03T15:31:10;9.10;95.80
59007;DHT22;44792;52.760;6.726;2023-04-03T15:33:36;9.00;96.20
59007;DHT22;44792;52.760;6.726;2023-04-03T15:36:03;9.00;94.50
59007;DHT22;44792;52.760;6.726;2023-04-03T15:38:29;9.10;96.00
59007;DHT22;44792;52.760;6.726;2023-04-03T15:40:55;9.10;96.20
59007;DHT22;44792;52.760;6.726;2023-04-03T15:43:21;9.10;92.70
59007;DHT22;44792;52.760;6.726;2023-04-03T15:45:48;9.10;97.00
59007;DHT22;44792;52.760;6.726;2023-04-03T15:48:14;9.10;96.10
59007;DHT22;44792;52.760;6.726;2023-04-03T15:50:40;9.10;96.60
59007;DHT22;44792;52.760;6.726;2023-04-03T15:53:06;9.10;95.20
59007;DHT22;44792;52.760;6.726;2023-04-03T15:55:34;9.20;96.30
59007;DHT22;44792;52.760;6.726;2023-04-03T15:58:00;9.10;95.40
59007;DHT22;44792;52.760;6.726;2023-04-03T16:00:27;9.20;93.20
59007;DHT22;44792;52.760;6.726;2023-04-03T16:03:04;9.40;96.40
59007;DHT22;44792;52.760;6.726;2023-04-03T16:05:30;9.40;95.70
59007;DHT22;44792;52.760;6.726;2023-04-03T16:07:58;9.50;97.10
59007;DHT22;44792;52.760;6.726;2023-04-03T16:10:25;9.40;95.10
59007;DHT22;44792;52.760;6.726;2023-04-03T16:12:50;9.40;99.10
59007;DHT22;44792;52.760;6.726;2023-04-03T16:15:16;9.40;97.60
59007;DHT22;44792;52.760;6.726;2023-04-03T16:17:42;9.30;96.00
59007;DHT22;44792;52.760;6.726;2023-04-03T16:20:09;9.20;94.90
59007;DHT22;44792;52.760;6.726;2023-04-03T16:22:37;9.20;97.20
59007;DHT22;44792;52.760;6.726;2023-04-03T16:25:04;9.30;97.60
59007;DHT22;44792;52.760;6.726;2023-04-03T16:27:30;9.30;96.10
59007;DHT22;44792;52.760;6.726;2023-04-03T16:29:57;9.30;95.20
59007;DHT22;44792;52.760;6.726;2023-04-03T16:32:23;9.30;96.40
59007;DHT22;44792;52.760;6.726;2023-04-03T16:34:50;9.30;94.00
59007;DHT22;44792;52.760;6.726;2023-04-03T16:37:16;9.30;95.20
59007;DHT22;44792;52.760;6.726;2023-04-03T16:39:42;9.30;95.70
59007;DHT22;44792;52.760;6.726;2023-04-03T16:42:09;9.20;95.20
59007;DHT22;44792;52.760;6.726;2023-04-03T16:44:36;9.20;94.60
59007;DHT22;44792;52.760;6.726;2023-04-03T16:47:02;9.20;95.20
59007;DHT22;44792;52.760;6.726;2023-04-03T16:49:28;9.20;96.60
59007;DHT22;44792;52.760;6.726;2023-04-03T16:51:58;9.20;96.30
59007;DHT22;44792;52.760;6.726;2023-04-03T16:54:24;9.20;93.80
59007;DHT22;44792;52.760;6.726;2023-04-03T16:56:50;9.10;95.00
59007;DHT22;44792;52.760;6.726;2023-04-03T16:59:16;9.10;92.90
59007;DHT22;44792;52.760;6.726;2023-04-03T17:01:42;9.10;93.60
59007;DHT22;44792;52.760;6.726;2023-04-03T17:04:08;9.10;95.60
59007;DHT22;44792;52.760;6.726;2023-04-03T17:06:34;9.10;96.70
59007;DHT22;44792;52.760;6.726;2023-04-03T17:09:00;9.00;96.30
59007;DHT22;44792;52.760;6.726;2023-04-03T17:11:30;9.10;97.70
59007;DHT22;44792;52.760;6.726;2023-04-03T17:13:56;9.10;95.80
59007;DHT22;44792;52.760;6.726;2023-04-03T17:16:23;9.00;96.20
59007;DHT22;44792;52.760;6.726;2023-04-03T17:18:49;9.00;96.50
59007;DHT22;44792;52.760;6.726;2023-04-03T17:21:16;8.90;95.90
59007;DHT22;44792;52.760;6.726;2023-04-03T17:23:44;8.80;95.40
59007;DHT22;44792;52.760;6.726;2023-04-03T17:26:12;8.90;97.10
59007;DHT22;44792;52.760;6.726;2023-04-03T17:28:38;8.80;97.70
59007;DHT22;44792;52.760;6.726;2023-04-03T17:31:08;8.90;98.40
59007;DHT22;44792;52.760;6.726;2023-04-03T17:33:34;8.80;97.00
59007;DHT22;44792;52.760;6.726;2023-04-03T17:36:02;8.80;96.90
59007;DHT22;44792;52.760;6.726;2023-04-03T17:38:32;8.60;98.00
59007;DHT22;44792;52.760;6.726;2023-04-03T17:41:04;8.70;98.40
59007;DHT22;44792;52.760;6.726;2023-04-03T17:43:30;8.70;99.30
59007;DHT22;44792;52.760;6.726;2023-04-03T17:46:00;8.70;99.90
59007;DHT22;44792;52.760;6.726;2023-04-03T17:48:29;8.60;99.90
59007;DHT22;44792;52.760;6.726;2023-04-03T17:50:55;8.50;99.90
59007;DHT22;44792;52.760;6.726;2023-04-03T17:53:21;8.50;99.90
59007;DHT22;44792;52.760;6.726;2023-04-03T17:55:46;8.50;99.90